Time;durP1;ratioP1;P1;durP2;ratioP2;P2;SDS_P1;SDS_P2;PMS_P1;PMS_P2;Temp;Humidity;BMP_temperature;BMP_pressure;BME280_temperature;BME280_humidity;BME280_pressure;Samples;Min_cycle;Max_cycle;Signal;HPM_P1;HPM_P2
2024/01/20 00:00:37;;;;;;;3.88;2.28;;;15.30;66.50;;;;;;4202296;27;20051;-46
2024/01/20 00:03:18;;;;;;;3.63;2.30;;;15.30;66.20;;;;;;4203009;27;20071;-44
2024/01/20 00:05:59;;;;;;;6.78;3.05;;;15.20;66.20;;;;;;4201911;27;20063;-45
2024/01/20 00:08:41;;;;;;;5.75;2.88;;;15.20;66.40;;;;;;4215063;27;20062;-50
2024/01/20 00:11:22;;;;;;;5.47;2.65;;;15.20;66.40;;;;;;4186560;27;20056;-45
2024/01/20 00:14:03;;;;;;;2.65;2.22;;;15.30;66.20;;;;;;4197988;28;20100;-45
2024/01/20 00:16:45;;;;;;;6.45;2.92;;;15.30;66.00;;;;;;4201182;28;20211;-47
2024/01/20 00:19:27;;;;;;;6.32;2.83;;;15.30;66.00;;;;;;4201989;28;20109;-47
2024/01/20 00:22:08;;;;;;;7.43;3.05;;;15.20;67.00;;;;;;4203906;27;20158;-48
2024/01/20 00:24:49;;;;;;;4.78;2.80;;;15.30;66.10;;;;;;4202092;28;20506;-46
2024/01/20 00:27:31;;;;;;;3.30;3.00;;;15.30;66.00;;;;;;4205076;28;20112;-45
2024/01/20 00:30:12;;;;;;;4.85;3.05;;;15.30;65.90;;;;;;4201678;28;20055;-46
2024/01/20 00:32:55;;;;;;;4.85;2.80;;;15.40;65.80;;;;;;4203096;28;20092;-48
2024/01/20 00:35:36;;;;;;;6.07;2.92;;;15.40;65.60;;;;;;4204810;28;20059;-45
2024/01/20 00:38:17;;;;;;;5.03;2.85;;;15.50;65.50;;;;;;4206193;28;20051;-45
2024/01/20 00:40:58;;;;;;;8.52;3.03;;;15.50;65.30;;;;;;4205796;28;20055;-45
2024/01/20 00:43:39;;;;;;;5.20;3.10;;;15.50;65.30;;;;;;4214915;27;20042;-48
2024/01/20 00:46:21;;;;;;;6.35;3.25;;;15.60;65.10;;;;;;4221532;27;20280;-46
2024/01/20 00:49:04;;;;;;;3.72;2.97;;;15.70;64.60;;;;;;4214812;27;20559;-46
2024/01/20 00:51:45;;;;;;;3.67;2.53;;;15.80;64.30;;;;;;4203900;28;20396;-45
2024/01/20 00:54:26;;;;;;;6.05;3.15;;;15.90;64.10;;;;;;4205989;28;20055;-44
2024/01/20 00:57:07;;;;;;;;;;;15.90;63.90;;;;;;4204687;28;20054;-44
2024/01/20 00:59:48;;;;;;;5.38;2.95;;;16.00;63.70;;;;;;4198992;28;20291;-47
2024/01/20 01:02:29;;;;;;;5.38;3.75;;;16.10;63.60;;;;;;4216762;27;20528;-47
2024/01/20 01:05:12;;;;;;;5.38;2.92;;;16.10;63.40;;;;;;4220905;27;20109;-46
2024/01/20 01:07:53;;;;;;;8.25;3.15;;;16.10;63.10;;;;;;4219054;27;20188;-47
2024/01/20 01:10:34;;;;;;;8.63;3.57;;;16.10;63.00;;;;;;4221130;27;20091;-45
2024/01/20 01:13:15;;;;;;;5.82;3.13;;;16.10;63.00;;;;;;4203086;28;20420;-47
2024/01/20 01:15:56;;;;;;;;;;;16.20;63.10;;;;;;4186688;28;20412;-48
2024/01/20 01:18:38;;;;;;;6.55;3.13;;;16.10;63.10;;;;;;4187135;28;19931;-45
2024/01/20 01:21:20;;;;;;;5.53;3.20;;;16.20;63.00;;;;;;4188117;28;20129;-46
2024/01/20 01:24:00;;;;;;;4.40;2.72;;;16.20;63.00;;;;;;4201230;27;20531;-45
2024/01/20 01:26:43;;;;;;;6.50;3.28;;;16.10;63.00;;;;;;4201376;27;20124;-45
2024/01/20 01:29:24;;;;;;;5.35;2.83;;;16.10;62.90;;;;;;4200730;27;20054;-49
2024/01/20 01:32:05;;;;;;;5.45;3.40;;;16.10;62.80;;;;;;4202116;27;20182;-45
2024/01/20 01:34:46;;;;;;;5.28;3.35;;;16.00;62.90;;;;;;4212349;27;20383;-45
2024/01/20 01:37:28;;;;;;;4.00;3.20;;;16.00;63.20;;;;;;4238202;27;20177;-47
2024/01/20 01:40:10;;;;;;;4.93;3.55;;;15.90;63.40;;;;;;4236913;27;20054;-45
2024/01/20 01:42:56;;;;;;;4.78;3.53;;;15.80;63.90;;;;;;4205532;27;20114;-48
2024/01/20 01:45:37;;;;;;;8.40;4.05;;;15.70;64.00;;;;;;4204416;28;20055;-46
2024/01/20 01:48:18;;;;;;;;;;;15.80;64.40;;;;;;4239549;27;20058;-46
2024/01/20 01:50:59;;;;;;;4.93;3.03;;;15.90;64.10;;;;;;4224488;27;19930;-48
2024/01/20 01:53:43;;;;;;;9.88;3.70;;;15.90;63.80;;;;;;4220390;27;20067;-50
2024/01/20 01:56:24;;;;;;;4.97;3.60;;;16.00;63.50;;;;;;4203683;28;20079;-46
2024/01/20 01:59:06;;;;;;;5.32;3.42;;;16.10;63.00;;;;;;4204361;28;20055;-45
2024/01/20 02:01:47;;;;;;;5.10;3.97;;;16.20;62.80;;;;;;4204586;28;20055;-45
2024/01/20 02:04:28;;;;;;;7.20;3.60;;;16.20;62.90;;;;;;4203704;28;20062;-49
2024/01/20 02:07:09;;;;;;;4.88;4.18;;;16.30;62.70;;;;;;4205223;28;20559;-46
2024/01/20 02:09:51;;;;;;;7.55;3.97;;;16.40;62.30;;;;;;4202635;28;20100;-45
2024/01/20 02:12:32;;;;;;;4.15;3.75;;;16.40;62.10;;;;;;4188359;28;20552;-48
2024/01/20 02:15:14;;;;;;;7.00;4.47;;;16.50;62.00;;;;;;4188934;27;20395;-45
2024/01/20 02:17:57;;;;;;;6.97;4.40;;;16.40;61.60;;;;;;4204990;28;20514;-46
2024/01/20 02:20:38;;;;;;;6.68;4.50;;;16.50;61.60;;;;;;4203680;28;20043;-46
2024/01/20 02:23:20;;;;;;;6.63;4.28;;;16.40;61.70;;;;;;4204788;28;20059;-46
2024/01/20 02:26:01;;;;;;;10.45;4.38;;;16.30;61.70;;;;;;4212591;27;20072;-46
2024/01/20 02:28:42;;;;;;;9.02;4.32;;;16.30;62.10;;;;;;4221334;27;20054;-46
2024/01/20 02:31:24;;;;;;;6.70;4.65;;;16.30;62.20;;;;;;4204694;28;20097;-45
2024/01/20 02:34:05;;;;;;;5.85;4.38;;;16.40;62.10;;;;;;4220743;27;20094;-46
2024/01/20 02:36:46;;;;;;;7.05;4.30;;;16.40;61.90;;;;;;4219120;27;20051;-45
2024/01/20 02:39:29;;;;;;;;;;;16.50;61.90;;;;;;4219463;27;20058;-46
2024/01/20 02:42:10;;;;;;;6.38;5.00;;;16.50;61.80;;;;;;4210872;27;20925;-46
2024/01/20 02:44:51;;;;;;;11.55;4.65;;;16.60;61.60;;;;;;4204263;28;20055;-49
2024/01/20 02:47:32;;;;;;;7.40;4.93;;;16.50;61.40;;;;;;4220851;27;20050;-46
2024/01/20 02:50:13;;;;;;;8.52;5.00;;;16.40;61.50;;;;;;4208728;28;20055;-44
2024/01/20 02:52:54;;;;;;;5.55;4.90;;;16.30;61.70;;;;;;4202964;28;20055;-46
2024/01/20 02:55:37;;;;;;;6.75;5.03;;;16.20;62.90;;;;;;4204013;27;20078;-44
2024/01/20 02:58:18;;;;;;;6.70;4.93;;;16.10;62.40;;;;;;4203710;28;20082;-46
2024/01/20 03:01:02;;;;;;;9.93;5.00;;;16.00;63.00;;;;;;4202819;28;20069;-43
2024/01/20 03:03:44;;;;;;;8.07;5.38;;;16.10;63.30;;;;;;4200540;28;20067;-44
2024/01/20 03:06:25;;;;;;;9.68;5.25;;;16.10;63.10;;;;;;4209406;27;20063;-44
2024/01/20 03:09:07;;;;;;;8.43;5.65;;;16.30;62.80;;;;;;4203361;28;20054;-47
2024/01/20 03:11:49;;;;;;;5.78;4.75;;;16.40;62.30;;;;;;4202508;28;20066;-43
2024/01/20 03:14:30;;;;;;;7.50;4.80;;;16.50;61.80;;;;;;4219381;27;20059;-43
2024/01/20 03:17:11;;;;;;;7.72;5.88;;;16.50;61.40;;;;;;4220541;27;20063;-43
2024/01/20 03:19:53;;;;;;;6.60;5.57;;;16.60;61.50;;;;;;4199247;28;20067;-42
2024/01/20 03:22:34;;;;;;;6.70;5.95;;;16.60;61.30;;;;;;4203807;28;20083;-44
2024/01/20 03:25:15;;;;;;;7.90;6.35;;;16.60;61.10;;;;;;4200214;28;20174;-50
2024/01/20 03:27:58;;;;;;;9.27;7.05;;;16.50;61.20;;;;;;4200516;28;20055;-49
2024/01/20 03:30:39;;;;;;;11.35;7.15;;;16.50;61.40;;;;;;4208875;27;20050;-46
2024/01/20 03:33:20;;;;;;;7.18;6.45;;;16.30;61.60;;;;;;4213175;27;20050;-46
2024/01/20 03:36:00;;;;;;;12.23;7.00;;;16.20;61.90;;;;;;4207273;28;20476;-46
2024/01/20 03:38:42;;;;;;;9.20;7.00;;;16.20;62.40;;;;;;4201927;28;20518;-46
2024/01/20 03:41:23;;;;;;;;;;;16.10;62.40;;;;;;4218017;27;20055;-46
2024/01/20 03:44:06;;;;;;;11.73;7.22;;;16.20;62.30;;;;;;4204155;28;19988;-45
2024/01/20 03:46:47;;;;;;;9.90;6.60;;;16.40;61.90;;;;;;4209379;27;20059;-44
2024/01/20 03:49:28;;;;;;;10.93;7.43;;;16.50;61.50;;;;;;4209165;27;20051;-45
2024/01/20 03:52:09;;;;;;;9.93;7.70;;;16.50;61.20;;;;;;4203174;28;20059;-43
2024/01/20 03:54:50;;;;;;;9.80;7.30;;;16.60;61.00;;;;;;4191101;28;20055;-42
2024/01/20 03:57:31;;;;;;;9.52;7.13;;;16.70;60.90;;;;;;4216319;27;20042;-45
2024/01/20 04:00:24;;;;;;;9.43;7.57;;;16.70;60.70;;;;;;4208897;27;20049;-44
2024/01/20 04:03:06;;;;;;;9.57;7.30;;;16.80;60.30;;;;;;4219698;27;20054;-46
2024/01/20 04:05:47;;;;;;;9.05;7.57;;;16.80;60.20;;;;;;4203301;28;20063;-45
2024/01/20 04:08:28;;;;;;;10.90;7.80;;;16.90;60.00;;;;;;4203169;28;20109;-45
2024/01/20 04:11:09;;;;;;;10.60;8.50;;;17.00;59.90;;;;;;4203969;28;20063;-47
2024/01/20 04:13:50;;;;;;;9.32;7.60;;;17.00;59.80;;;;;;4207627;27;20083;-47
2024/01/20 04:16:33;;;;;;;9.75;7.47;;;17.00;59.90;;;;;;4206534;28;20046;-46
2024/01/20 04:19:14;;;;;;;9.57;7.60;;;16.90;59.90;;;;;;4204406;27;20059;-46
2024/01/20 04:21:55;;;;;;;;;;;16.80;60.30;;;;;;4188452;27;20063;-45
2024/01/20 04:24:36;;;;;;;13.23;8.88;;;16.60;60.60;;;;;;4191113;27;20595;-45
2024/01/20 04:27:18;;;;;;;11.05;8.95;;;16.60;61.10;;;;;;4214262;27;20459;-44
2024/01/20 04:29:59;;;;;;;10.75;8.38;;;16.50;61.40;;;;;;4215641;27;20217;-45
2024/01/20 04:32:42;;;;;;;12.48;9.50;;;16.60;61.30;;;;;;4187472;27;20194;-45
2024/01/20 04:35:23;;;;;;;10.55;9.48;;;16.60;60.90;;;;;;4189087;28;20063;-45
2024/01/20 04:38:04;;;;;;;14.18;10.00;;;16.70;60.60;;;;;;4187168;28;20060;-45
2024/01/20 04:40:48;;;;;;;11.32;8.85;;;16.80;60.40;;;;;;4202754;28;20454;-46
2024/01/20 04:43:30;;;;;;;15.80;10.05;;;16.90;60.20;;;;;;4187515;28;20082;-44
2024/01/20 04:46:11;;;;;;;;;;;16.90;60.00;;;;;;4189558;28;20182;-47
2024/01/20 04:48:53;;;;;;;11.98;9.48;;;16.90;60.00;;;;;;4188723;28;19931;-46
2024/01/20 04:51:34;;;;;;;13.57;9.05;;;16.80;60.00;;;;;;4189393;28;20085;-46
2024/01/20 04:54:15;;;;;;;13.35;10.10;;;16.80;60.20;;;;;;4205258;27;20172;-46
2024/01/20 04:56:57;;;;;;;12.45;9.68;;;16.70;60.50;;;;;;4206062;27;20177;-47
2024/01/20 04:59:38;;;;;;;10.73;9.52;;;16.70;60.80;;;;;;4205317;27;20105;-48
2024/01/20 05:02:19;;;;;;;13.70;10.35;;;16.70;60.60;;;;;;4223761;27;20054;-46
2024/01/20 05:05:02;;;;;;;14.85;10.50;;;16.80;60.30;;;;;;4205205;28;20155;-45
2024/01/20 05:07:43;;;;;;;11.68;10.27;;;16.80;60.20;;;;;;4202803;28;20449;-45
2024/01/20 05:10:27;;;;;;;13.05;10.15;;;16.90;59.90;;;;;;4182961;28;20055;-45
2024/01/20 05:13:08;;;;;;;15.57;9.70;;;16.90;59.90;;;;;;4202916;28;20125;-45
2024/01/20 05:15:50;;;;;;;11.70;9.90;;;16.90;59.90;;;;;;4181056;28;20502;-44
2024/01/20 05:18:31;;;;;;;11.95;10.00;;;16.90;59.90;;;;;;4198947;28;20164;-46
2024/01/20 05:21:15;;;;;;;15.40;10.68;;;16.80;59.90;;;;;;4197561;28;20185;-46
2024/01/20 05:23:57;;;;;;;16.63;10.60;;;16.80;59.90;;;;;;4171382;28;20055;-44
2024/01/20 05:26:39;;;;;;;12.32;10.50;;;16.70;60.20;;;;;;4182437;27;20097;-45
2024/01/20 05:29:21;;;;;;;13.50;10.90;;;16.70;60.30;;;;;;4189510;27;20060;-45
2024/01/20 05:32:03;;;;;;;16.58;11.05;;;16.70;60.30;;;;;;4190124;27;20059;-45
2024/01/20 05:34:48;;;;;;;14.45;11.40;;;16.70;60.10;;;;;;4205041;27;20059;-44
2024/01/20 05:37:30;;;;;;;16.15;11.18;;;16.80;60.20;;;;;;4204659;28;20617;-45
2024/01/20 05:40:12;;;;;;;15.30;11.10;;;16.80;59.90;;;;;;4221867;27;20053;-44
2024/01/20 05:42:53;;;;;;;12.90;10.57;;;16.80;59.70;;;;;;4209103;27;20054;-45
2024/01/20 05:45:34;;;;;;;14.07;10.52;;;16.80;59.70;;;;;;4204885;27;20059;-47
2024/01/20 05:48:15;;;;;;;16.17;11.52;;;16.90;59.80;;;;;;4220133;27;20091;-47
2024/01/20 05:50:56;;;;;;;18.60;12.15;;;16.90;59.60;;;;;;4210887;27;20509;-45
2024/01/20 05:53:39;;;;;;;17.02;11.90;;;16.90;60.30;;;;;;4211642;27;20121;-45
2024/01/20 05:56:21;;;;;;;20.20;12.80;;;16.80;59.50;;;;;;4205193;27;20047;-45
2024/01/20 05:59:02;;;;;;;18.63;11.88;;;16.80;59.60;;;;;;4189779;27;20063;-44
2024/01/20 06:01:50;;;;;;;17.98;11.57;;;16.80;59.80;;;;;;4202011;27;20059;-45
2024/01/20 06:04:30;;;;;;;18.08;12.23;;;16.70;59.90;;;;;;4194159;27;20058;-45
2024/01/20 06:07:17;;;;;;;16.27;11.88;;;16.60;60.00;;;;;;4204540;27;20058;-45
2024/01/20 06:10:00;;;;;;;15.60;11.27;;;16.60;60.40;;;;;;4205325;28;20109;-46
2024/01/20 06:12:43;;;;;;;15.65;12.43;;;16.50;60.30;;;;;;4209404;27;20059;-45
2024/01/20 06:15:28;;;;;;;18.60;11.32;;;16.50;60.70;;;;;;4216601;27;20090;-45
2024/01/20 06:18:09;;;;;;;18.63;12.13;;;16.50;61.00;;;;;;4209330;27;20043;-49
2024/01/20 06:20:54;;;;;;;17.05;11.32;;;16.40;60.80;;;;;;4203549;28;20059;-46
2024/01/20 06:23:35;;;;;;;19.17;13.40;;;16.50;60.70;;;;;;4201669;28;20055;-45
2024/01/20 06:26:17;;;;;;;;;;;16.70;60.30;;;;;;4204046;28;20470;-45
2024/01/20 06:29:02;;;;;;;20.15;12.52;;;16.80;60.00;;;;;;4204754;27;19927;-46
2024/01/20 06:31:42;;;;;;;;;;;16.90;60.30;;;;;;4203362;27;20517;-48
2024/01/20 06:34:23;;;;;;;19.02;12.65;;;17.00;59.30;;;;;;4183858;28;19983;-45
2024/01/20 06:37:05;;;;;;;18.48;11.77;;;17.10;59.00;;;;;;4191022;27;20059;-45
2024/01/20 06:39:47;;;;;;;;;;;17.20;58.70;;;;;;4205124;28;20132;-44
2024/01/20 06:42:29;;;;;;;18.75;12.70;;;17.20;58.50;;;;;;4219264;27;19926;-45
2024/01/20 06:45:11;;;;;;;19.80;12.63;;;17.30;58.50;;;;;;4203044;28;20066;-45
2024/01/20 06:47:52;;;;;;;;;;;17.30;58.50;;;;;;4192254;28;20113;-45
2024/01/20 06:50:36;;;;;;;23.13;13.38;;;17.30;58.40;;;;;;4202941;27;20085;-44
2024/01/20 06:53:17;;;;;;;20.85;13.38;;;17.40;58.20;;;;;;4202498;27;20132;-44
2024/01/20 06:55:58;;;;;;;21.23;13.07;;;17.40;58.00;;;;;;4186598;28;20609;-43
2024/01/20 06:58:41;;;;;;;19.55;13.90;;;17.30;57.90;;;;;;4187057;28;20064;-45
2024/01/20 07:01:22;;;;;;;20.08;13.88;;;17.40;58.10;;;;;;4186598;28;20081;-41
2024/01/20 07:04:03;;;;;;;23.35;14.40;;;17.40;58.20;;;;;;4202917;27;20062;-44
2024/01/20 07:06:45;;;;;;;23.10;13.18;;;17.40;58.40;;;;;;4202412;28;20047;-44
2024/01/20 07:09:26;;;;;;;21.00;14.25;;;17.40;58.30;;;;;;4201735;28;20441;-43
2024/01/20 07:12:08;;;;;;;19.70;13.60;;;17.40;58.10;;;;;;4204766;27;20070;-43
2024/01/20 07:14:50;;;;;;;;;;;17.50;58.00;;;;;;4187287;28;20051;-43
2024/01/20 07:17:31;;;;;;;21.77;13.60;;;17.50;57.80;;;;;;4187274;28;20015;-41
2024/01/20 07:20:13;;;;;;;23.65;13.55;;;17.50;57.70;;;;;;4189137;27;20059;-44
2024/01/20 07:22:54;;;;;;;16.35;12.25;;;17.50;57.60;;;;;;4207510;27;20054;-45
2024/01/20 07:25:36;;;;;;;19.38;13.38;;;17.40;57.60;;;;;;4225358;27;20054;-43
2024/01/20 07:28:18;;;;;;;19.50;13.25;;;17.40;57.80;;;;;;4216508;27;20059;-44
2024/01/20 07:31:00;;;;;;;22.88;15.10;;;17.30;57.90;;;;;;4203353;27;20059;-42
2024/01/20 07:33:41;;;;;;;22.10;14.30;;;17.20;58.00;;;;;;4202768;28;20177;-43
2024/01/20 07:36:22;;;;;;;21.77;14.50;;;17.10;58.10;;;;;;4202105;28;20108;-42
2024/01/20 07:39:04;;;;;;;19.13;13.77;;;17.10;58.40;;;;;;4203653;28;20059;-42
2024/01/20 07:41:45;;;;;;;19.58;13.98;;;17.00;58.70;;;;;;4203360;28;20082;-43
2024/01/20 07:44:26;;;;;;;19.67;12.73;;;17.00;58.60;;;;;;4202044;28;20051;-43
2024/01/20 07:47:09;;;;;;;20.58;13.35;;;17.10;58.50;;;;;;4202612;28;20055;-43
2024/01/20 07:49:50;;;;;;;18.67;13.00;;;17.20;58.20;;;;;;4203217;28;20494;-42
2024/01/20 07:52:31;;;;;;;24.30;13.75;;;17.30;57.90;;;;;;4204455;27;20157;-42
2024/01/20 07:55:12;;;;;;;21.40;14.45;;;17.30;57.70;;;;;;4203532;28;20483;-43
2024/01/20 07:57:56;;;;;;;19.88;13.85;;;17.30;57.30;;;;;;4203273;28;20062;-47
2024/01/20 08:00:37;;;;;;;23.13;13.90;;;17.30;56.00;;;;;;4186729;28;20055;-47
2024/01/20 08:03:20;;;;;;;19.65;13.57;;;17.20;56.00;;;;;;4185912;28;20056;-49
2024/01/20 08:06:01;;;;;;;20.73;13.52;;;17.10;56.00;;;;;;4198561;28;20514;-46
2024/01/20 08:08:42;;;;;;;20.25;14.15;;;16.90;56.20;;;;;;4191095;28;20471;-50
2024/01/20 08:11:23;;;;;;;19.48;13.43;;;16.80;56.10;;;;;;4193137;28;20181;-47
2024/01/20 08:14:04;;;;;;;20.35;14.38;;;16.80;56.40;;;;;;4208449;27;20058;-48
2024/01/20 08:16:45;;;;;;;19.10;13.43;;;16.60;56.70;;;;;;4217628;27;20055;-47
2024/01/20 08:19:28;;;;;;;20.95;12.35;;;16.60;56.80;;;;;;4209860;27;20050;-47
2024/01/20 08:22:09;;;;;;;20.33;14.13;;;16.60;56.60;;;;;;4219027;27;20055;-49
2024/01/20 08:24:51;;;;;;;26.58;13.80;;;16.70;56.60;;;;;;4218120;27;20120;-47
2024/01/20 08:27:32;;;;;;;22.45;13.68;;;16.70;56.50;;;;;;4215233;27;20058;-48
2024/01/20 08:30:14;;;;;;;19.25;12.43;;;16.70;56.20;;;;;;4205858;27;20201;-50
2024/01/20 08:32:55;;;;;;;22.85;14.30;;;16.70;56.40;;;;;;4215721;27;20051;-39
2024/01/20 08:35:39;;;;;;;24.40;13.80;;;16.70;56.40;;;;;;4217562;27;20047;-40
2024/01/20 08:38:20;;;;;;;20.33;12.82;;;16.70;56.50;;;;;;4218047;27;20058;-40
2024/01/20 08:41:07;;;;;;;;;;;16.60;56.50;;;;;;4208819;27;20054;-50
2024/01/20 08:43:49;;;;;;;19.27;13.13;;;16.60;56.50;;;;;;4201208;28;19946;-47
2024/01/20 08:46:30;;;;;;;19.83;13.40;;;16.60;56.70;;;;;;4202572;27;20431;-49
2024/01/20 08:49:12;;;;;;;20.90;13.75;;;16.50;56.80;;;;;;4193049;27;20051;-48
2024/01/20 08:51:55;;;;;;;;;;;16.50;56.70;;;;;;4200500;27;20051;-51
2024/01/20 08:54:37;;;;;;;17.75;13.10;;;16.50;57.10;;;;;;4201419;28;20057;-48
2024/01/20 08:57:18;;;;;;;20.15;13.45;;;16.50;57.20;;;;;;4213583;27;20108;-48
2024/01/20 08:59:59;;;;;;;23.67;14.55;;;16.50;57.10;;;;;;4212653;27;20051;-48
2024/01/20 09:02:40;;;;;;;24.08;16.08;;;16.60;56.90;;;;;;4219550;27;20414;-48
2024/01/20 09:05:21;;;;;;;22.50;13.40;;;16.60;56.70;;;;;;4220131;27;20058;-47
2024/01/20 09:08:05;;;;;;;18.90;14.13;;;16.70;56.70;;;;;;4203577;27;20090;-47
2024/01/20 09:10:46;;;;;;;20.50;13.25;;;16.70;56.40;;;;;;4203537;27;20062;-48
2024/01/20 09:13:30;;;;;;;19.38;13.80;;;16.70;56.20;;;;;;4214678;27;20050;-49
2024/01/20 09:16:11;;;;;;;21.27;14.80;;;16.70;56.20;;;;;;4221609;27;20505;-47
2024/01/20 09:18:52;;;;;;;22.05;13.65;;;16.70;56.30;;;;;;4219995;27;20058;-48
2024/01/20 09:21:33;;;;;;;;;;;16.60;56.30;;;;;;4214862;27;20058;-48
2024/01/20 09:24:15;;;;;;;20.17;12.65;;;16.60;56.50;;;;;;4208657;27;20457;-48
2024/01/20 09:26:56;;;;;;;22.75;14.65;;;16.40;56.60;;;;;;4214564;27;20073;-47
2024/01/20 09:29:37;;;;;;;21.95;13.95;;;16.40;56.80;;;;;;4215275;27;20043;-49
2024/01/20 09:32:20;;;;;;;21.20;13.45;;;16.40;57.40;;;;;;4208322;27;20078;-47
2024/01/20 09:35:01;;;;;;;18.70;12.85;;;16.50;56.60;;;;;;4207991;27;20201;-47
2024/01/20 09:37:42;;;;;;;;;;;16.80;56.50;;;;;;4220875;27;20056;-47
2024/01/20 09:40:25;;;;;;;17.60;12.40;;;17.20;55.90;;;;;;4205502;27;19927;-51
2024/01/20 09:43:06;;;;;;;21.25;13.27;;;17.60;55.10;;;;;;4200920;28;20062;-41
2024/01/20 09:45:48;;;;;;;21.80;12.48;;;18.10;54.00;;;;;;4202984;28;20054;-40
2024/01/20 09:48:28;;;;;;;18.83;12.30;;;18.60;53.00;;;;;;4216966;27;20055;-42
2024/01/20 09:51:09;;;;;;;23.15;12.95;;;19.10;52.40;;;;;;4202716;28;20051;-41
2024/01/20 09:53:54;;;;;;;21.02;13.30;;;19.50;51.00;;;;;;4203610;28;20128;-41
2024/01/20 09:56:38;;;;;;;19.23;12.02;;;19.90;50.20;;;;;;4185541;28;20629;-40
2024/01/20 09:59:20;;;;;;;22.70;12.48;;;20.10;49.50;;;;;;4209509;27;20086;-40
2024/01/20 10:02:02;;;;;;;19.33;11.80;;;20.40;49.10;;;;;;4220837;27;20054;-41
2024/01/20 10:04:45;;;;;;;20.75;13.48;;;20.50;48.90;;;;;;4218711;27;20054;-41
2024/01/20 10:07:29;;;;;;;19.77;13.13;;;20.50;48.70;;;;;;4221130;27;20100;-41
2024/01/20 10:10:20;;;;;;;17.98;13.35;;;20.60;48.50;;;;;;4207932;27;20103;-41
2024/01/20 10:13:02;;;;;;;19.75;13.43;;;20.70;48.50;;;;;;4204604;28;20059;-41
2024/01/20 10:15:44;;;;;;;19.85;12.60;;;20.70;48.50;;;;;;4214751;27;20170;-41
2024/01/20 10:18:25;;;;;;;17.02;12.50;;;20.70;48.50;;;;;;4204025;28;20407;-40
2024/01/20 10:21:07;;;;;;;22.27;12.52;;;20.70;49.30;;;;;;4203555;28;20063;-41
2024/01/20 10:23:48;;;;;;;16.45;12.35;;;20.70;48.70;;;;;;4208843;27;20058;-41
2024/01/20 10:26:29;;;;;;;14.95;11.38;;;20.70;48.70;;;;;;4218012;27;20055;-40
2024/01/20 10:29:12;;;;;;;18.45;11.80;;;20.60;48.60;;;;;;4202039;27;20054;-41
2024/01/20 10:31:53;;;;;;;15.88;12.23;;;20.60;48.70;;;;;;4200547;27;20051;-41
2024/01/20 10:34:37;;;;;;;17.40;12.13;;;20.60;48.70;;;;;;4201305;27;20096;-40
2024/01/20 10:37:23;;;;;;;17.13;11.40;;;20.50;48.90;;;;;;4201794;28;20100;-41
2024/01/20 10:40:05;;;;;;;19.63;11.27;;;20.40;49.10;;;;;;4201317;27;20055;-42
2024/01/20 10:42:54;;;;;;;16.92;11.82;;;20.30;49.20;;;;;;4187545;28;20055;-42
2024/01/20 10:45:45;;;;;;;17.08;12.10;;;20.20;50.20;;;;;;4187409;28;20055;-41
2024/01/20 10:48:27;;;;;;;16.33;10.82;;;20.10;49.50;;;;;;4208223;27;20184;-40
2024/01/20 10:51:12;;;;;;;16.38;10.65;;;20.10;49.70;;;;;;4212226;27;20051;-41
2024/01/20 10:53:54;;;;;;;17.65;11.52;;;20.10;49.70;;;;;;4210671;27;20047;-41
2024/01/20 10:56:37;;;;;;;16.52;11.90;;;20.10;49.60;;;;;;4210417;27;20062;-40
2024/01/20 10:59:19;;;;;;;15.98;10.82;;;20.20;49.50;;;;;;4219797;27;20103;-41
2024/01/20 11:02:03;;;;;;;18.02;12.27;;;20.20;49.40;;;;;;4177692;28;20068;-40
2024/01/20 11:04:45;;;;;;;22.00;12.68;;;20.20;49.30;;;;;;4185764;28;20630;-40
2024/01/20 11:07:26;;;;;;;18.33;11.68;;;20.20;49.40;;;;;;4197328;27;20047;-41
2024/01/20 11:10:08;;;;;;;17.50;12.18;;;20.20;49.50;;;;;;4204943;27;20055;-40
2024/01/20 11:13:00;;;;;;;21.85;13.10;;;20.20;49.40;;;;;;4189947;28;20506;-40
2024/01/20 11:15:51;;;;;;;17.02;12.50;;;20.20;49.40;;;;;;4219035;27;20115;-41
2024/01/20 11:18:40;;;;;;;18.75;12.55;;;20.20;49.60;;;;;;4218970;27;20058;-41
2024/01/20 11:21:21;;;;;;;14.30;9.73;;;20.20;49.60;;;;;;4219726;27;20072;-40
2024/01/20 11:24:04;;;;;;;19.63;12.60;;;20.10;49.50;;;;;;4200982;28;20060;-40
2024/01/20 11:26:45;;;;;;;24.02;14.18;;;20.00;49.80;;;;;;4193278;28;20415;-40
2024/01/20 11:29:27;;;;;;;18.58;13.57;;;19.90;50.00;;;;;;4208493;28;20105;-40
2024/01/20 11:32:08;;;;;;;;;;;19.80;50.10;;;;;;4203591;28;20136;-40
2024/01/20 11:34:50;;;;;;;19.02;11.02;;;19.70;50.70;;;;;;4202461;28;20394;-40
2024/01/20 11:37:32;;;;;;;18.65;12.13;;;19.50;51.00;;;;;;4203855;28;20055;-40
2024/01/20 11:40:13;;;;;;;17.52;12.50;;;19.30;51.10;;;;;;4186658;28;20056;-40
2024/01/20 11:43:04;;;;;;;;;;;19.30;51.30;;;;;;4190225;27;20082;-40
2024/01/20 11:45:44;;;;;;;17.65;11.90;;;19.40;51.30;;;;;;4201886;27;19989;-40
2024/01/20 11:48:26;;;;;;;21.27;13.80;;;19.40;51.10;;;;;;4203081;27;20046;-40
2024/01/20 11:51:09;;;;;;;19.38;11.75;;;19.60;51.00;;;;;;4202641;28;20499;-40
2024/01/20 11:53:51;;;;;;;20.17;13.63;;;19.60;50.70;;;;;;4203062;28;20047;-40
2024/01/20 11:56:33;;;;;;;18.25;13.07;;;19.70;50.40;;;;;;4199143;28;20086;-40
2024/01/20 11:59:14;;;;;;;17.88;12.35;;;19.80;50.20;;;;;;4199641;28;20044;-41
2024/01/20 12:01:56;;;;;;;20.65;13.65;;;19.90;50.00;;;;;;4210275;27;20082;-40
2024/01/20 12:04:36;;;;;;;19.40;13.80;;;20.00;50.40;;;;;;4220721;27;20054;-40
2024/01/20 12:07:19;;;;;;;16.02;12.20;;;20.10;50.10;;;;;;4220234;27;20058;-40
2024/01/20 12:10:00;;;;;;;19.67;12.65;;;20.20;49.50;;;;;;4218825;27;20058;-49
2024/01/20 12:12:41;;;;;;;22.70;14.73;;;20.20;49.30;;;;;;4218958;27;20051;-47
2024/01/20 12:15:23;;;;;;;21.65;12.95;;;20.10;49.50;;;;;;4218117;27;20058;-47
2024/01/20 12:18:05;;;;;;;19.45;13.55;;;20.10;49.50;;;;;;4213336;27;20132;-48
2024/01/20 12:20:46;;;;;;;19.48;13.35;;;20.00;49.70;;;;;;4184636;28;20525;-51
2024/01/20 12:23:28;;;;;;;20.55;13.60;;;20.00;49.60;;;;;;4204095;27;20070;-40
2024/01/20 12:26:16;;;;;;;21.58;13.38;;;19.90;49.60;;;;;;4202629;27;20051;-40
2024/01/20 12:28:58;;;;;;;16.30;12.77;;;19.80;49.70;;;;;;4202616;27;20073;-41
2024/01/20 12:31:39;;;;;;;20.80;14.27;;;19.70;50.70;;;;;;4205073;27;20046;-40
2024/01/20 12:34:24;;;;;;;18.55;12.70;;;19.60;50.40;;;;;;4204890;27;20568;-39
2024/01/20 12:37:06;;;;;;;19.15;14.25;;;19.60;50.80;;;;;;4176960;28;20407;-40
2024/01/20 12:39:53;;;;;;;19.10;14.07;;;19.60;50.70;;;;;;4207730;27;20055;-40
2024/01/20 12:42:34;;;;;;;18.85;14.00;;;19.60;50.90;;;;;;4220119;27;20406;-39
2024/01/20 12:45:15;;;;;;;;;;;19.60;51.00;;;;;;4203634;27;20047;-40
2024/01/20 12:47:57;;;;;;;15.60;11.75;;;19.70;51.00;;;;;;4214442;27;19930;-40
2024/01/20 12:50:38;;;;;;;20.23;13.23;;;19.70;50.90;;;;;;4222142;27;20516;-39
2024/01/20 12:53:19;;;;;;;18.60;13.15;;;19.80;50.80;;;;;;4206074;28;20108;-40
2024/01/20 12:56:02;;;;;;;15.20;12.80;;;19.80;50.80;;;;;;4205567;27;20076;-49
2024/01/20 12:58:45;;;;;;;16.73;12.50;;;19.80;50.50;;;;;;4206994;27;20106;-39
2024/01/20 13:01:26;;;;;;;17.02;13.05;;;19.80;50.60;;;;;;4221729;27;20185;-40
2024/01/20 13:04:09;;;;;;;17.77;11.98;;;19.90;50.30;;;;;;4215968;27;20059;-40
2024/01/20 13:06:51;;;;;;;16.33;12.27;;;19.90;50.20;;;;;;4205181;28;20051;-40
2024/01/20 13:09:32;;;;;;;17.38;12.20;;;19.90;50.30;;;;;;4205235;27;20177;-40
2024/01/20 13:12:14;;;;;;;18.88;12.02;;;19.90;50.20;;;;;;4189237;28;20055;-40
2024/01/20 13:14:56;;;;;;;19.30;13.48;;;19.90;50.00;;;;;;4187874;27;20048;-40
2024/01/20 13:17:37;;;;;;;18.77;12.55;;;19.90;50.00;;;;;;4204451;27;20059;-40
2024/01/20 13:20:18;;;;;;;16.88;12.43;;;20.00;50.10;;;;;;4205380;28;20579;-40
2024/01/20 13:22:59;;;;;;;17.58;10.90;;;20.00;50.10;;;;;;4192032;27;20479;-40
2024/01/20 13:25:40;;;;;;;17.58;12.32;;;20.00;50.90;;;;;;4198168;27;20051;-40
2024/01/20 13:28:23;;;;;;;20.13;12.68;;;19.90;50.10;;;;;;4204301;27;20388;-40
2024/01/20 13:31:04;;;;;;;18.05;12.13;;;20.00;49.90;;;;;;4204742;27;20173;-40
2024/01/20 13:33:46;;;;;;;18.88;13.40;;;20.00;50.00;;;;;;4220492;27;20129;-40
2024/01/20 13:36:27;;;;;;;17.77;12.57;;;20.00;50.00;;;;;;4203606;28;20805;-40
2024/01/20 13:39:08;;;;;;;15.77;11.40;;;20.00;50.00;;;;;;4220775;27;21473;-40
2024/01/20 13:41:50;;;;;;;16.08;10.57;;;20.00;49.90;;;;;;4219914;27;20201;-39
2024/01/20 13:44:32;;;;;;;16.52;11.27;;;20.00;50.00;;;;;;4220010;27;20046;-40
2024/01/20 13:47:13;;;;;;;16.20;11.68;;;20.00;50.00;;;;;;4204410;27;20047;-40
2024/01/20 13:49:54;;;;;;;18.20;11.68;;;19.90;50.00;;;;;;4206743;27;20063;-40
2024/01/20 13:52:35;;;;;;;15.25;11.65;;;19.90;50.40;;;;;;4205520;27;20067;-40